Time;durP1;ratioP1;P1;durP2;ratioP2;P2;SDS_P1;SDS_P2;PMS_P1;PMS_P2;Temp;Humidity;BMP_temperature;BMP_pressure;BME280_temperature;BME280_humidity;BME280_pressure;Samples;Min_cycle;Max_cycle;Signal;HPM_P1;HPM_P2
2024/01/23 00:00:07;;;;;;;1999.90;999.90;;;;;;;7.59;91.40;101480.66;10336671;28;20073;-67
2024/01/23 00:05:09;;;;;;;1999.90;999.90;;;;;;;7.50;91.43;101501.78;10336120;28;20046;-67
2024/01/23 00:10:11;;;;;;;1999.90;999.90;;;;;;;7.49;92.84;101515.75;10335782;28;20046;-67
2024/01/23 00:15:14;;;;;;;1999.90;999.90;;;;;;;7.36;93.96;101530.91;10318880;28;20072;-67
2024/01/23 00:20:16;;;;;;;1999.90;999.90;;;;;;;7.54;91.31;101545.09;10335865;28;20125;-67
2024/01/23 00:25:19;;;;;;;1999.90;999.90;;;;;;;7.41;91.65;101542.03;10334834;28;20080;-67
2024/01/23 00:30:21;;;;;;;1999.90;999.90;;;;;;;7.51;90.21;101550.41;10336189;28;20057;-67
2024/01/23 00:35:23;;;;;;;1999.90;999.90;;;;;;;7.33;91.98;101555.31;10336197;28;20050;-67
2024/01/23 00:40:26;;;;;;;1999.90;999.90;;;;;;;7.49;90.67;101565.25;10334794;28;20054;-67
2024/01/23 00:45:29;;;;;;;1999.90;999.90;;;;;;;7.50;90.40;101554.78;10335674;28;20105;-67
2024/01/23 00:50:31;;;;;;;1999.90;999.90;;;;;;;7.50;90.80;101573.03;10335492;28;20054;-67
2024/01/23 00:55:33;;;;;;;1999.90;999.90;;;;;;;7.46;91.21;101601.81;10348954;23;20061;-67
2024/01/23 01:00:36;;;;;;;1999.90;999.90;;;;;;;7.39;91.71;101601.16;10335159;28;20173;-67
2024/01/23 01:05:39;;;;;;;1999.90;999.90;;;;;;;7.36;92.09;101611.66;10335076;28;20058;-67
2024/01/23 01:10:41;;;;;;;1999.90;999.90;;;;;;;7.34;92.71;101629.09;10333815;28;20050;-67
2024/01/23 01:15:44;;;;;;;1999.90;999.90;;;;;;;7.31;92.80;101632.66;10334737;28;20054;-67
2024/01/23 01:20:48;;;;;;;1999.90;999.90;;;;;;;7.29;92.35;101644.03;10333400;28;20050;-67
2024/01/23 01:25:50;;;;;;;1999.90;999.90;;;;;;;7.34;92.81;101635.16;10334532;28;20050;-67
2024/01/23 01:30:53;;;;;;;1999.90;999.90;;;;;;;7.30;92.30;101656.16;10333788;28;20482;-69
2024/01/23 01:35:55;;;;;;;1999.90;999.90;;;;;;;7.08;94.39;101669.81;10335594;28;20125;-67
2024/01/23 01:40:58;;;;;;;1999.90;999.90;;;;;;;7.02;94.94;101683.00;10342055;28;20042;-67
2024/01/23 01:46:16;;;;;;;1999.90;999.90;;;;;;;6.87;95.80;101672.09;10341927;28;20073;-67
2024/01/23 01:51:21;;;;;;;1999.90;999.90;;;;;;;6.84;96.85;101686.97;10342441;28;20057;-69
2024/01/23 01:56:24;;;;;;;1999.90;999.90;;;;;;;6.70;97.17;101687.34;10340292;28;20054;-68
2024/01/23 02:01:27;;;;;;;1999.90;999.90;;;;;;;6.73;98.12;101709.84;10323909;28;20054;-68
2024/01/23 02:06:30;;;;;;;1999.90;999.90;;;;;;;6.60;98.67;101724.91;10339976;28;20058;-68
2024/01/23 02:11:34;;;;;;;1999.90;999.90;;;;;;;6.61;99.49;101730.09;10341593;28;20042;-67
2024/01/23 02:16:36;;;;;;;1999.90;999.90;;;;;;;6.50;99.67;101721.69;10341436;28;20050;-67
2024/01/23 02:21:38;;;;;;;1999.90;999.90;;;;;;;6.48;98.94;101742.53;10341073;28;20047;-67
2024/01/23 02:26:41;;;;;;;1999.90;999.90;;;;;;;6.48;100.00;101750.34;10341033;28;20055;-67
2024/01/23 02:31:43;;;;;;;1999.90;999.90;;;;;;;6.40;99.97;101767.03;10340762;28;20046;-67
2024/01/23 02:36:46;;;;;;;1999.90;999.90;;;;;;;6.42;99.95;101773.06;10340710;28;20081;-67
2024/01/23 02:41:48;;;;;;;1999.90;999.90;;;;;;;6.49;99.57;101783.28;10340331;28;20046;-67
2024/01/23 02:46:52;;;;;;;1999.90;999.90;;;;;;;6.44;99.50;101789.47;10338592;28;20401;-67
2024/01/23 02:51:54;;;;;;;1999.90;999.90;;;;;;;6.55;99.84;101799.63;10340123;28;20047;-67
2024/01/23 02:56:56;;;;;;;1999.90;999.90;;;;;;;6.40;99.95;101811.25;10338124;28;20133;-67
2024/01/23 03:01:59;;;;;;;1999.90;999.90;;;;;;;6.54;100.00;101808.31;10339649;28;20050;-67
2024/01/23 03:07:01;;;;;;;1999.90;999.90;;;;;;;6.62;98.63;101827.22;10339533;28;20046;-67
2024/01/23 03:12:15;;;;;;;1999.90;999.90;;;;;;;6.58;100.00;101818.63;10338739;28;20505;-67
2024/01/23 03:17:18;;;;;;;1999.90;999.90;;;;;;;6.62;99.13;101815.06;10339220;28;20553;-67
2024/01/23 03:22:20;;;;;;;1999.90;999.90;;;;;;;6.51;100.00;101822.28;10338884;28;20130;-67
2024/01/23 03:27:23;;;;;;;1999.90;999.90;;;;;;;6.43;100.00;101832.00;10338100;28;20105;-67
2024/01/23 03:32:26;;;;;;;1999.90;999.90;;;;;;;6.57;100.00;101844.69;10338543;28;20104;-67
2024/01/23 03:37:28;;;;;;;1999.90;999.90;;;;;;;6.55;100.00;101851.69;10338365;28;20109;-67
2024/01/23 03:42:30;;;;;;;1999.90;999.90;;;;;;;6.44;100.00;101873.59;10337616;28;20052;-67
2024/01/23 03:47:33;;;;;;;1999.90;999.90;;;;;;;6.43;100.00;101873.63;10337309;28;20161;-67
2024/01/23 03:52:36;;;;;;;1999.90;999.90;;;;;;;6.57;99.47;101901.94;10336931;28;20082;-67
2024/01/23 03:57:38;;;;;;;1999.90;999.90;;;;;;;6.34;99.21;101895.50;10336278;28;20050;-67
2024/01/23 04:02:41;;;;;;;1999.90;999.90;;;;;;;6.26;100.00;101913.03;10336614;28;20046;-68
2024/01/23 04:07:44;;;;;;;1999.90;999.90;;;;;;;6.31;100.00;101927.63;10336546;28;20130;-68
2024/01/23 04:12:46;;;;;;;1999.90;999.90;;;;;;;6.31;98.90;101939.78;10336949;28;20074;-68
2024/01/23 04:17:48;;;;;;;1999.90;999.90;;;;;;;6.28;98.68;101942.44;10336753;28;20050;-68
2024/01/23 04:22:51;;;;;;;1999.90;999.90;;;;;;;6.22;99.48;101948.66;10335303;28;20050;-68
2024/01/23 04:27:53;;;;;;;1999.90;999.90;;;;;;;6.22;98.26;101964.25;10336371;28;20051;-68
2024/01/23 04:32:55;;;;;;;1999.90;999.90;;;;;;;6.11;98.70;101968.81;10335490;28;20414;-70
2024/01/23 04:37:58;;;;;;;1999.90;999.90;;;;;;;6.11;98.87;101979.22;10334895;28;20089;-68
2024/01/23 04:43:00;;;;;;;1999.90;999.90;;;;;;;6.03;99.51;101992.34;10335844;28;20057;-68
2024/01/23 04:48:03;;;;;;;1999.90;999.90;;;;;;;6.02;99.63;102002.75;10335108;28;20056;-68
2024/01/23 04:53:06;;;;;;;1999.90;999.90;;;;;;;5.91;100.00;102023.75;10333973;28;20134;-68
2024/01/23 04:58:08;;;;;;;1999.90;999.90;;;;;;;5.93;100.00;102022.84;10334760;28;20516;-68
2024/01/23 05:03:11;;;;;;;1999.90;999.90;;;;;;;5.85;100.00;102023.84;10335075;28;20130;-68
2024/01/23 05:08:15;;;;;;;1999.90;999.90;;;;;;;5.84;99.75;102051.59;10334372;28;20453;-68
2024/01/23 05:13:17;;;;;;;1999.90;999.90;;;;;;;5.89;99.93;102054.13;10333826;28;20529;-68
2024/01/23 05:18:20;;;;;;;1999.90;999.90;;;;;;;5.89;100.00;102073.16;10334164;28;20556;-68
2024/01/23 05:23:24;;;;;;;1999.90;999.90;;;;;;;5.97;99.13;102083.47;10333982;28;20086;-68
2024/01/23 05:28:26;;;;;;;1999.90;999.90;;;;;;;6.07;98.83;102081.53;10333939;28;20054;-68
2024/01/23 05:33:28;;;;;;;1999.90;999.90;;;;;;;6.00;98.81;102088.63;10333810;28;20417;-68
2024/01/23 05:38:31;;;;;;;1999.90;999.90;;;;;;;5.99;98.53;102110.28;10334403;28;20061;-68
2024/01/23 05:43:33;;;;;;;1999.90;999.90;;;;;;;6.01;96.39;102118.91;10334211;28;20050;-68
2024/01/23 05:48:36;;;;;;;1999.90;999.90;;;;;;;5.99;97.43;102133.69;10334172;28;20130;-68
2024/01/23 05:53:38;;;;;;;1999.90;999.90;;;;;;;5.93;98.08;102137.22;10333741;28;20054;-68
2024/01/23 05:58:42;;;;;;;1999.90;999.90;;;;;;;5.85;99.35;102135.63;10333907;28;20057;-68
2024/01/23 06:03:45;;;;;;;1999.90;999.90;;;;;;;5.85;100.00;102146.88;10333115;28;20046;-68
2024/01/23 06:08:47;;;;;;;1999.90;999.90;;;;;;;5.91;99.02;102145.91;10332685;28;20050;-68
2024/01/23 06:13:50;;;;;;;1999.90;999.90;;;;;;;5.83;98.80;102159.03;10332549;28;20052;-68
2024/01/23 06:18:52;;;;;;;1999.90;999.90;;;;;;;5.91;98.57;102169.31;10332443;28;20051;-67
2024/01/23 06:23:55;;;;;;;1999.90;999.90;;;;;;;5.84;99.04;102193.69;10338556;28;20043;-68
2024/01/23 06:28:58;;;;;;;1999.90;999.90;;;;;;;5.75;98.48;102194.69;10339903;28;20073;-67
2024/01/23 06:34:01;;;;;;;1999.90;999.90;;;;;;;5.63;99.86;102213.94;10339721;28;20050;-68
2024/01/23 06:39:03;;;;;;;1999.90;999.90;;;;;;;5.64;100.00;102220.81;10339542;28;20077;-67
2024/01/23 06:44:06;;;;;;;1999.90;999.90;;;;;;;5.68;100.00;102230.31;10339709;28;20042;-67
2024/01/23 06:49:08;;;;;;;1999.90;999.90;;;;;;;5.47;100.00;102239.25;10339622;28;20490;-68
2024/01/23 06:54:10;;;;;;;1999.90;999.90;;;;;;;5.54;100.00;102242.63;10339265;28;20398;-68
2024/01/23 06:59:15;;;;;;;1999.90;999.90;;;;;;;5.37;100.00;102245.44;10339181;28;20410;-68
2024/01/23 07:04:18;;;;;;;1999.90;999.90;;;;;;;5.30;100.00;102246.41;10338475;28;20046;-68
2024/01/23 07:09:21;;;;;;;1999.90;999.90;;;;;;;5.39;100.00;102249.72;10339478;28;20058;-68
2024/01/23 07:14:23;;;;;;;1999.90;999.90;;;;;;;5.29;100.00;102257.66;10338656;28;20533;-68
2024/01/23 07:19:26;;;;;;;1999.90;999.90;;;;;;;5.31;100.00;102271.47;10339155;28;20081;-68
2024/01/23 07:24:29;;;;;;;1999.90;999.90;;;;;;;5.24;100.00;102260.28;10338874;28;20077;-68
2024/01/23 07:29:31;;;;;;;1999.90;999.90;;;;;;;5.36;100.00;102262.75;10338113;28;20054;-68
2024/01/23 07:34:33;;;;;;;1999.90;999.90;;;;;;;5.39;100.00;102286.06;10337956;28;20048;-68
2024/01/23 07:39:36;;;;;;;1999.90;999.90;;;;;;;5.17;100.00;102289.81;10337824;28;20050;-68
2024/01/23 07:44:39;;;;;;;1999.90;999.90;;;;;;;5.39;100.00;102312.06;10337666;28;20061;-68
2024/01/23 07:49:41;;;;;;;1999.90;999.90;;;;;;;5.43;100.00;102310.31;10337944;28;20062;-68
2024/01/23 07:54:50;;;;;;;1999.90;999.90;;;;;;;5.21;100.00;102322.66;10336815;28;20522;-68
2024/01/23 07:59:52;;;;;;;1999.90;999.90;;;;;;;5.30;100.00;102332.09;10337441;28;20113;-68
2024/01/23 08:04:55;;;;;;;1999.90;999.90;;;;;;;5.30;100.00;102339.88;10336106;28;20060;-68
2024/01/23 08:09:57;;;;;;;1999.90;999.90;;;;;;;5.20;100.00;102341.72;10336563;28;20054;-68
2024/01/23 08:14:59;;;;;;;1999.90;999.90;;;;;;;5.27;100.00;102366.75;10336945;28;20050;-68
2024/01/23 08:20:02;;;;;;;1999.90;999.90;;;;;;;5.35;100.00;102353.69;10335768;28;20057;-68
2024/01/23 08:25:05;;;;;;;1999.90;999.90;;;;;;;5.37;100.00;102370.09;10336523;28;20056;-68
2024/01/23 08:30:08;;;;;;;1999.90;999.90;;;;;;;5.29;100.00;102366.72;10336393;28;20057;-68
2024/01/23 08:35:11;;;;;;;1999.90;999.90;;;;;;;5.55;100.00;102377.69;10335515;28;20051;-68
2024/01/23 08:40:15;;;;;;;1999.90;999.90;;;;;;;5.65;100.00;102380.19;10336005;28;20133;-68
2024/01/23 08:45:18;;;;;;;1999.90;999.90;;;;;;;5.56;100.00;102400.22;10334898;28;20137;-68
2024/01/23 08:50:20;;;;;;;1999.90;999.90;;;;;;;5.74;100.00;102398.28;10333891;28;20062;-68
2024/01/23 08:55:23;;;;;;;1999.90;999.90;;;;;;;5.96;100.00;102393.72;10335046;28;20054;-68
2024/01/23 09:00:25;;;;;;;1999.90;999.90;;;;;;;5.86;100.00;102411.13;10334029;28;20058;-68
2024/01/23 09:05:28;;;;;;;1999.90;999.90;;;;;;;6.20;99.03;102400.31;10333292;28;20054;-67
2024/01/23 09:10:36;;;;;;;1999.90;999.90;;;;;;;7.91;91.49;102400.03;10333960;28;20105;-68
2024/01/23 09:15:38;;;;;;;1999.90;999.90;;;;;;;9.13;81.55;102391.19;10334887;28;20050;-68
2024/01/23 09:20:40;;;;;;;1999.90;999.90;;;;;;;10.41;78.34;102394.53;10334116;28;20398;-68
2024/01/23 09:25:43;;;;;;;1999.90;999.90;;;;;;;9.44;76.23;102397.31;10334542;28;20058;-68
2024/01/23 09:30:45;;;;;;;1999.90;999.90;;;;;;;10.80;74.11;102405.56;10332719;28;20137;-68
2024/01/23 09:35:48;;;;;;;1999.90;999.90;;;;;;;11.01;77.25;102407.50;10333822;28;20129;-68
2024/01/23 09:40:51;;;;;;;1999.90;999.90;;;;;;;11.35;70.23;102398.47;10333286;28;20074;-68
2024/01/23 09:45:54;;;;;;;1999.90;999.90;;;;;;;10.27;71.01;102404.56;10334213;28;20048;-68
2024/01/23 09:50:57;;;;;;;1999.90;999.90;;;;;;;11.93;69.67;102413.03;10332993;28;20061;-68
2024/01/23 09:56:00;;;;;;;1999.90;999.90;;;;;;;12.33;68.03;102430.75;10334265;28;20073;-68
2024/01/23 10:01:03;;;;;;;1999.90;999.90;;;;;;;12.72;69.04;102424.81;10342314;28;20057;-68
2024/01/23 10:06:06;;;;;;;1999.90;999.90;;;;;;;11.77;68.51;102425.81;10340853;28;20050;-68
2024/01/23 10:11:10;;;;;;;1999.90;999.90;;;;;;;10.54;72.78;102439.56;10339975;28;20072;-68
2024/01/23 10:16:14;;;;;;;1999.90;999.90;;;;;;;10.92;74.78;102440.06;10340499;28;20046;-68
2024/01/23 10:21:21;;;;;;;1999.90;999.90;;;;;;;10.56;73.36;102455.22;10340200;28;20321;-68
2024/01/23 10:26:23;;;;;;;1999.90;999.90;;;;;;;11.77;69.92;102437.19;10339457;28;20076;-68
2024/01/23 10:31:26;;;;;;;1999.90;999.90;;;;;;;8.65;77.32;102435.00;10340381;28;20406;-68
2024/01/23 10:36:28;;;;;;;1999.90;999.90;;;;;;;9.34;80.68;102426.38;10340851;28;20052;-68
2024/01/23 10:41:31;;;;;;;1999.90;999.90;;;;;;;9.30;80.11;102409.91;10340571;28;20120;-68
2024/01/23 10:46:34;;;;;;;1999.90;999.90;;;;;;;9.44;78.64;102420.00;10338681;28;20140;-68
2024/01/23 10:51:37;;;;;;;1999.90;999.90;;;;;;;8.79;80.99;102426.84;10338524;28;20585;-68
2024/01/23 10:56:44;;;;;;;1999.90;999.90;;;;;;;8.82;81.08;102441.59;10338158;28;20533;-68
2024/01/23 11:01:48;;;;;;;1999.90;999.90;;;;;;;8.61;82.18;102430.75;10338687;28;20046;-68
2024/01/23 11:07:03;;;;;;;1999.90;999.90;;;;;;;8.32;82.43;102420.91;10338608;28;20105;-68
2024/01/23 11:12:17;;;;;;;1999.90;999.90;;;;;;;9.32;82.84;102409.88;10338328;28;20544;-68
2024/01/23 11:17:21;;;;;;;1999.90;999.90;;;;;;;8.96;80.97;102402.94;10338729;28;20575;-68
2024/01/23 11:22:23;;;;;;;1999.90;999.90;;;;;;;8.77;81.10;102402.50;10338443;28;20133;-68
2024/01/23 11:27:29;;;;;;;1999.90;999.90;;;;;;;9.24;81.77;102389.16;10338934;28;20129;-70
2024/01/23 11:32:31;;;;;;;1999.90;999.90;;;;;;;9.20;80.50;102392.75;10337564;28;20050;-68
2024/01/23 11:37:48;;;;;;;1999.90;999.90;;;;;;;9.17;78.98;102370.16;10320733;28;20129;-68
2024/01/23 11:42:52;;;;;;;1999.90;999.90;;;;;;;9.13;79.55;102378.13;10337217;28;20217;-68
2024/01/23 11:47:56;;;;;;;1999.90;999.90;;;;;;;9.00;81.36;102357.53;10338171;28;20058;-68
2024/01/23 11:52:59;;;;;;;1999.90;999.90;;;;;;;8.91;78.49;102348.19;10320749;28;20046;-68
2024/01/23 11:58:02;;;;;;;1999.90;999.90;;;;;;;9.57;77.68;102350.78;10335855;28;20141;-68
2024/01/23 12:03:11;;;;;;;1999.90;999.90;;;;;;;9.62;77.70;102335.81;10337445;28;20049;-68
2024/01/23 12:08:14;;;;;;;1999.90;999.90;;;;;;;8.70;78.01;102328.69;10336254;28;20054;-68
2024/01/23 12:13:17;;;;;;;1999.90;999.90;;;;;;;9.34;78.45;102306.13;10336428;28;20387;-68
2024/01/23 12:18:22;;;;;;;1999.90;999.90;;;;;;;9.28;77.63;102308.03;10336227;28;20431;-68
2024/01/23 12:23:25;;;;;;;1999.90;999.90;;;;;;;9.26;77.11;102296.75;10335399;28;20050;-68
2024/01/23 12:28:32;;;;;;;1999.90;999.90;;;;;;;9.08;76.14;102295.50;10336529;28;20524;-68
2024/01/23 12:33:38;;;;;;;1999.90;999.90;;;;;;;9.44;78.16;102287.53;10336382;28;20125;-68
2024/01/23 12:38:41;;;;;;;1999.90;999.90;;;;;;;9.37;76.70;102290.38;10334480;28;20058;-66
2024/01/23 12:43:44;;;;;;;1999.90;999.90;;;;;;;9.83;76.84;102289.00;10335344;28;20421;-66
2024/01/23 12:48:47;;;;;;;1999.90;999.90;;;;;;;9.71;77.63;102278.91;10334723;28;20061;-66
2024/01/23 12:53:50;;;;;;;1999.90;999.90;;;;;;;9.28;78.46;102274.03;10333993;28;20137;-65
2024/01/23 12:58:53;;;;;;;1999.90;999.90;;;;;;;9.41;76.89;102271.06;10334868;28;20572;-65
2024/01/23 13:03:56;;;;;;;1999.90;999.90;;;;;;;9.15;77.01;102272.69;10335177;28;20074;-65
2024/01/23 13:08:58;;;;;;;1999.90;999.90;;;;;;;9.42;79.17;102249.25;10341309;22;20081;-64
2024/01/23 13:14:00;;;;;;;1999.90;999.90;;;;;;;9.05;79.82;102238.09;10332308;28;20386;-64
2024/01/23 13:19:03;;;;;;;1999.90;999.90;;;;;;;9.17;80.83;102220.38;10330498;28;20437;-64
2024/01/23 13:24:07;;;;;;;1999.90;999.90;;;;;;;9.15;80.83;102230.00;10331033;28;20533;-64
2024/01/23 13:29:09;;;;;;;1999.90;999.90;;;;;;;9.12;82.00;102233.56;10334641;28;20120;-64
2024/01/23 13:34:16;;;;;;;1999.90;999.90;;;;;;;8.98;81.95;102235.69;10333487;28;20050;-64
2024/01/23 13:39:19;;;;;;;1999.90;999.90;;;;;;;9.25;82.36;102227.09;10334602;28;20104;-64
2024/01/23 13:44:21;;;;;;;1999.90;999.90;;;;;;;9.17;82.13;102218.59;10333035;28;20047;-64
2024/01/23 13:49:24;;;;;;;1999.90;999.90;;;;;;;8.85;84.76;102199.47;10333025;28;20054;-64
2024/01/23 13:54:26;;;;;;;1999.90;999.90;;;;;;;9.09;84.75;102212.75;10334058;28;20046;-63
2024/01/23 13:59:29;;;;;;;1999.90;999.90;;;;;;;8.89;85.84;102208.94;10334006;28;20046;-64
2024/01/23 14:04:31;;;;;;;1999.90;999.90;;;;;;;8.78;87.48;102194.47;10333855;28;20050;-64
2024/01/23 14:09:36;;;;;;;1999.90;999.90;;;;;;;8.80;88.63;102193.53;10333476;28;20093;-64
2024/01/23 14:14:38;;;;;;;1999.90;999.90;;;;;;;8.84;87.30;102196.91;10333720;28;20074;-64
2024/01/23 14:19:41;;;;;;;1999.90;999.90;;;;;;;8.59;90.52;102179.31;10333683;28;20061;-64
2024/01/23 14:24:43;;;;;;;1999.90;999.90;;;;;;;8.73;93.90;102163.25;10331631;28;20050;-64
2024/01/23 14:29:46;;;;;;;1999.90;999.90;;;;;;;8.38;96.94;102162.41;10332804;28;20058;-64
2024/01/23 14:34:50;;;;;;;1999.90;999.90;;;;;;;8.26;100.00;102162.75;10333329;28;20046;-64
2024/01/23 14:39:52;;;;;;;1999.90;999.90;;;;;;;8.24;100.00;102149.75;10333236;28;20062;-64
2024/01/23 14:44:55;;;;;;;1999.90;999.90;;;;;;;8.23;100.00;102129.75;10336650;28;20046;-64
2024/01/23 14:49:57;;;;;;;1999.90;999.90;;;;;;;8.06;100.00;102129.34;10339778;28;20056;-64
2024/01/23 14:55:00;;;;;;;1999.90;999.90;;;;;;;7.92;100.00;102127.09;10340188;28;20077;-64
2024/01/23 15:00:06;;;;;;;1999.90;999.90;;;;;;;8.00;100.00;102096.44;10340063;28;20058;-64
2024/01/23 15:05:10;;;;;;;1999.90;999.90;;;;;;;8.07;100.00;102094.53;10339823;28;20053;-64
2024/01/23 15:10:13;;;;;;;1999.90;999.90;;;;;;;8.04;100.00;102092.03;10339175;28;20058;-64
2024/01/23 15:15:16;;;;;;;1999.90;999.90;;;;;;;7.89;100.00;102090.66;10338320;28;20085;-64
2024/01/23 15:20:20;;;;;;;1999.90;999.90;;;;;;;7.78;100.00;102070.94;10339501;28;20057;-64
2024/01/23 15:25:23;;;;;;;1999.90;999.90;;;;;;;7.84;100.00;102059.47;10337866;28;20082;-64
2024/01/23 15:30:29;;;;;;;1999.90;999.90;;;;;;;7.76;100.00;102043.16;10338867;28;20077;-64
2024/01/23 15:35:33;;;;;;;1999.90;999.90;;;;;;;7.90;100.00;102032.38;10338755;28;20046;-64
2024/01/23 15:40:35;;;;;;;1999.90;999.90;;;;;;;7.68;100.00;102013.84;10337847;28;20434;-65
2024/01/23 15:45:38;;;;;;;1999.90;999.90;;;;;;;7.88;100.00;102006.34;10337506;28;20096;-65
2024/01/23 15:50:45;;;;;;;1999.90;999.90;;;;;;;7.75;100.00;101999.72;10337450;28;20055;-64
2024/01/23 15:55:48;;;;;;;1999.90;999.90;;;;;;;7.76;100.00;101994.47;10336891;28;20490;-64
2024/01/23 16:00:50;;;;;;;1999.90;999.90;;;;;;;7.71;100.00;101985.09;10337005;28;20068;-64
2024/01/23 16:05:53;;;;;;;1999.90;999.90;;;;;;;7.80;100.00;101963.97;10336723;28;20417;-64
2024/01/23 16:10:56;;;;;;;1999.90;999.90;;;;;;;7.70;100.00;101946.88;10336675;28;20113;-64
2024/01/23 16:15:58;;;;;;;1999.90;999.90;;;;;;;7.77;100.00;101930.19;10337012;28;20061;-64
2024/01/23 16:21:01;;;;;;;1999.90;999.90;;;;;;;7.67;100.00;101913.09;10336874;28;20054;-64
2024/01/23 16:26:03;;;;;;;1999.90;999.90;;;;;;;7.64;100.00;101885.34;10336553;28;20051;-64
2024/01/23 16:31:06;;;;;;;1999.90;999.90;;;;;;;7.44;100.00;101875.47;10336543;28;20390;-64
2024/01/23 16:36:09;;;;;;;1999.90;999.90;;;;;;;7.55;100.00;101875.19;10336311;28;20053;-64
2024/01/23 16:41:11;;;;;;;1999.90;999.90;;;;;;;7.58;100.00;101865.53;10334353;28;20054;-64
2024/01/23 16:46:14;;;;;;;1999.90;999.90;;;;;;;7.52;100.00;101860.47;10335207;28;20455;-64
2024/01/23 16:51:16;;;;;;;1999.90;999.90;;;;;;;7.64;100.00;101872.31;10334622;28;20050;-64
2024/01/23 16:56:18;;;;;;;1999.90;999.90;;;;;;;7.73;100.00;101850.34;10335595;28;20053;-64
2024/01/23 17:01:21;;;;;;;1999.90;999.90;;;;;;;7.81;100.00;101844.00;10334799;28;20078;-64
2024/01/23 17:06:23;;;;;;;1999.90;999.90;;;;;;;7.64;100.00;101830.59;10334455;28;20056;-64
2024/01/23 17:11:26;;;;;;;1999.90;999.90;;;;;;;7.67;100.00;101830.50;10333302;28;20062;-64
2024/01/23 17:16:28;;;;;;;1999.90;999.90;;;;;;;7.58;100.00;101820.34;10334360;28;20503;-64
2024/01/23 17:21:32;;;;;;;1999.90;999.90;;;;;;;7.59;100.00;101803.81;10334830;28;20084;-64
2024/01/23 17:26:34;;;;;;;1999.90;999.90;;;;;;;7.54;100.00;101777.88;10334653;28;20042;-64
2024/01/23 17:31:37;;;;;;;1999.90;999.90;;;;;;;7.66;100.00;101786.25;10332737;28;20050;-64
2024/01/23 17:36:39;;;;;;;1999.90;999.90;;;;;;;7.63;100.00;101774.16;10333288;28;20046;-64
2024/01/23 17:41:42;;;;;;;1999.90;999.90;;;;;;;7.70;100.00;101756.56;10333376;28;20054;-64
2024/01/23 17:46:45;;;;;;;1999.90;999.90;;;;;;;7.65;100.00;101730.66;10334242;28;20051;-63
2024/01/23 17:51:47;;;;;;;1999.90;999.90;;;;;;;7.60;100.00;101724.75;10333746;28;20480;-63
2024/01/23 17:56:52;;;;;;;1999.90;999.90;;;;;;;7.57;100.00;101710.03;10334091;28;20051;-63
2024/01/23 18:01:54;;;;;;;1999.90;999.90;;;;;;;7.57;100.00;101694.41;10333391;28;20097;-63
2024/01/23 18:06:57;;;;;;;1999.90;999.90;;;;;;;7.58;100.00;101711.75;10333723;28;20050;-63
2024/01/23 18:12:00;;;;;;;1999.90;999.90;;;;;;;7.70;100.00;101691.41;10333068;28;20069;-63
2024/01/23 18:17:02;;;;;;;1999.90;999.90;;;;;;;7.71;100.00;101686.16;10333894;28;20053;-63
2024/01/23 18:22:04;;;;;;;1999.90;999.90;;;;;;;7.78;100.00;101679.88;10340885;28;20058;-64
2024/01/23 18:27:07;;;;;;;1999.90;999.90;;;;;;;7.86;100.00;101689.19;10341268;28;20042;-64
2024/01/23 18:32:09;;;;;;;1999.90;999.90;;;;;;;7.81;100.00;101668.47;10341286;28;20056;-64
2024/01/23 18:37:12;;;;;;;1999.90;999.90;;;;;;;7.78;100.00;101665.94;10340933;28;20049;-64
2024/01/23 18:42:14;;;;;;;1999.90;999.90;;;;;;;8.05;100.00;101669.41;10340085;28;20512;-64
2024/01/23 18:47:16;;;;;;;1999.90;999.90;;;;;;;8.03;100.00;101660.81;10339874;28;20477;-64
2024/01/23 18:52:19;;;;;;;1999.90;999.90;;;;;;;7.99;100.00;101677.47;10340335;28;20129;-64
2024/01/23 18:57:21;;;;;;;1999.90;999.90;;;;;;;8.05;100.00;101637.28;10339540;28;20072;-64
2024/01/23 19:02:23;;;;;;;1999.90;999.90;;;;;;;8.16;100.00;101658.66;10340023;28;20054;-64
2024/01/23 19:07:26;;;;;;;1999.90;999.90;;;;;;;8.40;100.00;101622.19;10339854;28;20053;-64
2024/01/23 19:12:28;;;;;;;1999.90;999.90;;;;;;;8.23;100.00;101617.56;10339560;28;20110;-64
2024/01/23 19:17:31;;;;;;;1999.90;999.90;;;;;;;8.45;100.00;101604.63;10339431;28;20046;-64
2024/01/23 19:22:33;;;;;;;1999.90;999.90;;;;;;;8.33;100.00;101592.84;10338495;28;20242;-64
2024/01/23 19:27:36;;;;;;;1999.90;999.90;;;;;;;8.40;100.00;101583.03;10338419;28;20437;-64
2024/01/23 19:32:38;;;;;;;1999.90;999.90;;;;;;;8.54;100.00;101584.28;10338250;28;20137;-64
2024/01/23 19:37:41;;;;;;;1999.90;999.90;;;;;;;8.46;100.00;101575.88;10338865;28;20058;-64
2024/01/23 19:42:43;;;;;;;1999.90;999.90;;;;;;;8.57;100.00;101587.69;10338366;28;20052;-64
2024/01/23 19:47:46;;;;;;;1999.90;999.90;;;;;;;8.67;100.00;101573.38;10338227;28;20102;-64
2024/01/23 19:52:48;;;;;;;1999.90;999.90;;;;;;;8.87;100.00;101549.97;10336279;28;20516;-64
2024/01/23 19:57:51;;;;;;;1999.90;999.90;;;;;;;8.83;100.00;101529.28;10338062;28;20062;-64
2024/01/23 20:02:53;;;;;;;1999.90;999.90;;;;;;;8.90;100.00;101538.56;10337584;28;20051;-63
2024/01/23 20:07:55;;;;;;;1999.90;999.90;;;;;;;9.01;100.00;101512.03;10337185;28;20059;-64
2024/01/23 20:12:58;;;;;;;1999.90;999.90;;;;;;;9.19;100.00;101523.53;10336732;28;20054;-64
2024/01/23 20:18:00;;;;;;;1999.90;999.90;;;;;;;9.05;100.00;101506.63;10336120;28;20050;-64
2024/01/23 20:23:03;;;;;;;1999.90;999.90;;;;;;;9.41;100.00;101510.44;10336863;28;20093;-64
2024/01/23 20:28:05;;;;;;;1999.90;999.90;;;;;;;9.46;100.00;101469.28;10336082;28;20140;-64
2024/01/23 20:33:08;;;;;;;1999.90;999.90;;;;;;;9.39;100.00;101462.59;10335879;28;20042;-64
2024/01/23 20:38:11;;;;;;;1999.90;999.90;;;;;;;9.56;100.00;101490.66;10335650;28;20409;-64
2024/01/23 20:43:13;;;;;;;1999.90;999.90;;;;;;;9.62;100.00;101462.47;10335397;28;20403;-64
2024/01/23 20:48:15;;;;;;;1999.90;999.90;;;;;;;9.70;100.00;101463.91;10334410;28;20046;-64
2024/01/23 20:53:26;;;;;;;1999.90;999.90;;;;;;;9.70;100.00;101474.38;10335793;28;20050;-64
2024/01/23 20:58:28;;;;;;;1999.90;999.90;;;;;;;9.83;100.00;101463.34;10334904;28;20079;-64
2024/01/23 21:03:32;;;;;;;1999.90;999.90;;;;;;;9.83;100.00;101446.78;10334189;28;20093;-64
2024/01/23 21:08:35;;;;;;;1999.90;999.90;;;;;;;10.05;100.00;101444.06;10333616;28;20413;-64
2024/01/23 21:13:38;;;;;;;1999.90;999.90;;;;;;;9.97;100.00;101448.78;10335120;28;20121;-64
2024/01/23 21:18:40;;;;;;;1999.90;999.90;;;;;;;10.21;100.00;101452.91;10333710;28;20047;-64
2024/01/23 21:23:43;;;;;;;1999.90;999.90;;;;;;;10.21;100.00;101423.28;10334693;28;20046;-64
2024/01/23 21:28:45;;;;;;;1999.90;999.90;;;;;;;10.22;100.00;101419.72;10334572;28;20056;-64
2024/01/23 21:33:48;;;;;;;1999.90;999.90;;;;;;;10.15;100.00;101419.16;10334492;28;20050;-64
2024/01/23 21:38:50;;;;;;;1999.90;999.90;;;;;;;10.45;100.00;101412.63;10334397;28;20057;-65
2024/01/23 21:43:53;;;;;;;1999.90;999.90;;;;;;;10.53;100.00;101403.50;10334271;28;20050;-64
2024/01/23 21:48:55;;;;;;;1999.90;999.90;;;;;;;10.21;100.00;101400.56;10334246;28;20133;-64
2024/01/23 21:53:57;;;;;;;1999.90;999.90;;;;;;;10.58;100.00;101404.13;10338450;28;20054;-64
2024/01/23 21:59:00;;;;;;;1999.90;999.90;;;;;;;10.65;100.00;101383.72;10342379;28;20053;-64